Terminal Aerodrome Forecast
Issued by NWS

Current Version | Previous Version | Text Only | Print | Product List | Glossary Off
Versions: 1 2 3 4 5 6 7 8 9 10 11 12 13 14 15 16 17 18 19 20 21 22 23 24 25 26 27 28 29 30 31 32 33 34 35 36 37 38 39 40 41

000
FTUS41 KRNK 291740
TAFLWB
TAF
KLWB 291740Z 2918/3018 00000KT P6SM SCT030 BKN250
     FM292100 24003KT P6SM SCT035 BKN100
     FM300200 00000KT 3SM BR SCT035
     FM300700 00000KT 1/4SM FG VV001
     FM301330 00000KT 4SM BR BKN005
     FM301500 27003KT P6SM SCT030=

USA.gov is the U.S. government's official web portal to all federal, state and local government web resources and services.